Time;durP1;ratioP1;P1;durP2;ratioP2;P2;SDS_P1;SDS_P2;PMS_P1;PMS_P2;Temp;Humidity;BMP_temperature;BMP_pressure;BME280_temperature;BME280_humidity;BME280_pressure;Samples;Min_cycle;Max_cycle;Signal;HPM_P1;HPM_P2
2022/06/09 00:01:54;;;;;;;3.10;1.98;;;21.40;69.90;;;;;;4948348;28;88011;-87
2022/06/09 00:04:26;;;;;;;2.97;1.80;;;21.40;69.80;;;;;;4949800;28;88223;-87
2022/06/09 00:07:25;;;;;;;2.67;1.77;;;21.40;69.70;;;;;;4958482;28;90213;-87
2022/06/09 00:09:58;;;;;;;4.57;1.58;;;21.40;69.70;;;;;;4937174;28;87865;-87
2022/06/09 00:12:25;;;;;;;3.00;2.10;;;21.40;69.80;;;;;;4949371;28;87629;-85
2022/06/09 00:14:51;;;;;;;3.28;1.85;;;21.40;70.40;;;;;;4946134;28;89066;-86
2022/06/09 00:17:19;;;;;;;2.47;1.50;;;21.40;69.70;;;;;;4946871;28;91392;-85
2022/06/09 00:19:45;;;;;;;2.42;1.60;;;21.40;69.60;;;;;;4947621;28;87170;-86
2022/06/09 00:22:10;;;;;;;2.95;1.52;;;21.40;69.90;;;;;;4947548;28;89975;-86
2022/06/09 00:24:36;;;;;;;3.58;1.80;;;21.30;69.70;;;;;;4947390;28;90500;-86
2022/06/09 00:27:02;;;;;;;3.50;1.70;;;21.30;69.70;;;;;;4949546;28;87671;-87
2022/06/09 00:29:29;;;;;;;3.40;2.05;;;21.30;69.70;;;;;;4949047;28;87958;-86
2022/06/09 00:31:55;;;;;;;2.95;1.63;;;21.30;70.30;;;;;;4949002;28;86834;-87
2022/06/09 00:34:20;;;;;;;2.42;1.90;;;21.30;70.60;;;;;;4946812;28;90245;-88
2022/06/09 00:36:46;;;;;;;2.65;1.67;;;21.30;69.70;;;;;;4954582;28;89320;-88
2022/06/09 00:39:12;;;;;;;3.42;1.77;;;21.30;69.70;;;;;;4956842;28;88312;-87
2022/06/09 00:41:40;;;;;;;1.70;1.33;;;21.30;69.70;;;;;;4955382;28;89507;-87
2022/06/09 00:44:27;;;;;;;2.85;1.95;;;21.30;69.60;;;;;;4956248;28;87745;-87
2022/06/09 00:47:20;;;;;;;3.00;1.65;;;21.30;69.40;;;;;;4956690;28;88392;-88
2022/06/09 00:50:18;;;;;;;2.53;1.70;;;21.30;69.70;;;;;;4956201;28;87263;-86
2022/06/09 00:52:54;;;;;;;2.53;1.80;;;21.30;69.40;;;;;;4958264;28;89527;-86
2022/06/09 00:55:22;;;;;;;3.45;1.83;;;21.30;69.40;;;;;;4946417;28;90468;-88
2022/06/09 00:57:50;;;;;;;2.80;1.88;;;21.30;69.50;;;;;;4956607;28;86999;-85
2022/06/09 01:00:21;;;;;;;4.13;2.08;;;21.30;69.40;;;;;;4955793;28;88279;-87
2022/06/09 01:02:47;;;;;;;2.03;1.60;;;21.30;69.40;;;;;;4955916;28;87559;-87
2022/06/09 01:05:15;;;;;;;1.70;1.50;;;21.30;69.30;;;;;;4953398;28;91007;-87
2022/06/09 01:08:03;;;;;;;3.92;1.60;;;21.30;69.20;;;;;;4955115;28;88461;-86
2022/06/09 01:10:30;;;;;;;3.53;1.80;;;21.30;69.10;;;;;;4954572;28;87687;-88
2022/06/09 01:13:22;;;;;;;2.72;1.70;;;21.40;69.30;;;;;;4956155;28;87540;-88
2022/06/09 01:16:07;;;;;;;2.85;1.60;;;21.30;69.90;;;;;;4952378;28;87729;-88
2022/06/09 01:18:55;;;;;;;3.15;1.40;;;21.30;69.20;;;;;;4955420;28;87440;-87
2022/06/09 01:21:39;;;;;;;3.35;1.77;;;21.30;69.10;;;;;;4954880;28;87013;-88
2022/06/09 01:24:46;;;;;;;2.17;1.70;;;21.30;69.10;;;;;;4962027;28;89460;-88
2022/06/09 01:27:25;;;;;;;2.95;1.70;;;21.30;69.10;;;;;;4960467;28;89687;-85
2022/06/09 01:30:14;;;;;;;2.30;1.40;;;21.30;69.00;;;;;;4953720;28;90789;-86
2022/06/09 01:33:06;;;;;;;1.40;1.20;;;21.30;69.00;;;;;;4955762;28;87797;-85
2022/06/09 01:36:11;;;;;;;1.83;1.40;;;21.30;69.10;;;;;;4956394;28;88100;-86
2022/06/09 01:38:55;;;;;;;3.00;1.80;;;21.30;69.10;;;;;;4953075;28;88459;-86
2022/06/09 01:41:26;;;;;;;2.35;1.80;;;21.30;69.10;;;;;;4952739;28;88929;-86
2022/06/09 01:43:57;;;;;;;1.85;1.30;;;21.30;69.10;;;;;;4952984;28;87221;-84
2022/06/09 01:46:25;;;;;;;3.17;2.00;;;21.20;68.90;;;;;;4954300;28;86745;-85
2022/06/09 01:48:55;;;;;;;2.45;1.65;;;21.20;69.10;;;;;;4954938;28;87847;-86
2022/06/09 01:51:24;;;;;;;2.72;1.77;;;21.30;69.00;;;;;;4955965;28;87221;-86
2022/06/09 01:54:14;;;;;;;2.67;1.67;;;21.20;69.10;;;;;;4960676;28;87445;-85
2022/06/09 01:56:46;;;;;;;3.13;2.10;;;21.20;69.00;;;;;;4953121;28;87977;-87
2022/06/09 01:59:35;;;;;;;2.88;1.92;;;21.20;68.80;;;;;;4954656;28;89512;-88
2022/06/09 02:02:12;;;;;;;2.97;1.35;;;21.20;68.90;;;;;;4953508;28;91589;-86
2022/06/09 02:04:49;;;;;;;1.88;1.48;;;21.20;68.70;;;;;;4954883;28;87455;-86
2022/06/09 02:07:16;;;;;;;2.45;1.65;;;21.20;68.90;;;;;;4955581;28;88099;-88
2022/06/09 02:09:42;;;;;;;3.03;1.83;;;21.20;69.00;;;;;;4953124;28;90582;-87
2022/06/09 02:12:15;;;;;;;1.52;1.30;;;21.20;68.90;;;;;;4954137;28;89055;-87
2022/06/09 02:15:19;;;;;;;3.22;1.65;;;21.20;68.80;;;;;;4955761;28;87212;-87
2022/06/09 02:17:42;;;;;;;3.00;1.70;;;21.20;68.70;;;;;;4954236;28;87487;-88
2022/06/09 02:20:14;;;;;;;2.45;1.85;;;21.20;68.70;;;;;;4955282;28;88131;-87
2022/06/09 02:22:40;;;;;;;2.17;1.50;;;21.20;68.80;;;;;;4953180;28;89912;-85
2022/06/09 02:25:06;;;;;;;3.03;1.80;;;21.20;68.70;;;;;;4953514;28;88842;-88
2022/06/09 02:27:35;;;;;;;3.67;1.60;;;21.20;68.70;;;;;;4954443;28;90840;-86
2022/06/09 02:30:00;;;;;;;2.80;1.90;;;21.20;68.70;;;;;;4955879;28;87961;-87
2022/06/09 02:32:26;;;;;;;2.30;1.63;;;21.20;68.70;;;;;;4956456;28;87404;-84
2022/06/09 02:34:52;;;;;;;1.88;1.33;;;21.20;68.60;;;;;;4958041;28;87358;-87
2022/06/09 02:37:17;;;;;;;2.25;1.50;;;21.20;68.60;;;;;;4957019;28;88088;-88
2022/06/09 02:39:54;;;;;;;2.10;1.50;;;21.20;68.50;;;;;;4957147;28;90718;-87
2022/06/09 02:42:19;;;;;;;2.17;1.50;;;21.20;68.20;;;;;;4951428;28;89047;-87
2022/06/09 02:44:45;;;;;;;2.70;1.63;;;21.20;68.50;;;;;;4957688;28;87322;-84
2022/06/09 02:47:11;;;;;;;2.80;1.60;;;21.20;68.40;;;;;;4957475;28;87914;-85
2022/06/09 02:49:37;;;;;;;2.00;1.30;;;21.20;68.30;;;;;;4957413;28;88931;-85
2022/06/09 02:52:03;;;;;;;2.03;1.70;;;21.20;68.50;;;;;;4956525;28;90926;-85
2022/06/09 02:54:29;;;;;;;1.95;1.73;;;21.20;68.50;;;;;;4956320;28;87307;-87
2022/06/09 02:56:57;;;;;;;2.63;1.35;;;21.20;68.70;;;;;;4955650;28;88586;-87
2022/06/09 02:59:22;;;;;;;2.53;1.45;;;21.20;68.60;;;;;;4958015;28;88692;-83
2022/06/09 03:01:48;;;;;;;3.20;1.67;;;21.20;68.50;;;;;;4955826;28;90440;-84
2022/06/09 03:04:13;;;;;;;2.58;1.30;;;21.20;68.60;;;;;;4957053;28;87331;-87
2022/06/09 03:06:42;;;;;;;2.72;1.63;;;21.20;68.40;;;;;;4956862;28;86958;-86
2022/06/09 03:09:08;;;;;;;3.25;1.70;;;21.20;68.60;;;;;;4956943;28;87995;-86
2022/06/09 03:11:41;;;;;;;2.25;1.65;;;21.20;68.60;;;;;;4956179;28;90307;-88
2022/06/09 03:14:10;;;;;;;3.20;1.40;;;21.10;68.40;;;;;;4957185;28;88510;-87
2022/06/09 03:16:48;;;;;;;2.45;1.60;;;21.20;68.30;;;;;;4957494;28;86987;-86
2022/06/09 03:19:13;;;;;;;2.05;1.38;;;21.20;68.50;;;;;;4956802;28;89275;-86
2022/06/09 03:21:39;;;;;;;2.45;1.48;;;21.10;68.30;;;;;;4958398;28;87804;-86
2022/06/09 03:24:05;;;;;;;2.97;1.80;;;21.10;68.30;;;;;;4955923;28;87432;-87
2022/06/09 03:26:31;;;;;;;3.13;1.70;;;21.10;68.30;;;;;;4957255;28;88488;-85
2022/06/09 03:28:56;;;;;;;1.80;1.20;;;21.10;68.60;;;;;;4955662;28;90508;-86
2022/06/09 03:31:22;;;;;;;2.67;1.58;;;21.10;68.60;;;;;;4956260;28;87821;-85
2022/06/09 03:33:48;;;;;;;3.25;1.90;;;21.20;68.60;;;;;;4956678;28;86964;-85
2022/06/09 03:36:14;;;;;;;2.08;1.40;;;21.10;68.50;;;;;;4956685;28;87447;-88
2022/06/09 03:38:40;;;;;;;2.20;1.60;;;21.10;68.50;;;;;;4956254;28;91254;-86
2022/06/09 03:41:12;;;;;;;2.60;1.50;;;21.10;68.50;;;;;;4955996;28;91259;-87
2022/06/09 03:43:38;;;;;;;2.38;1.55;;;21.10;69.10;;;;;;4957001;28;87566;-88
2022/06/09 03:46:03;;;;;;;3.28;1.35;;;21.10;68.50;;;;;;4954262;28;88734;-86
2022/06/09 03:48:29;;;;;;;1.65;1.40;;;21.10;68.50;;;;;;4956864;28;87973;-86
2022/06/09 03:50:55;;;;;;;2.55;1.50;;;21.10;68.30;;;;;;4954659;28;88693;-87
2022/06/09 03:53:21;;;;;;;2.97;1.45;;;21.10;68.30;;;;;;4956724;28;86997;-87
2022/06/09 03:55:47;;;;;;;3.80;1.70;;;21.10;68.50;;;;;;4955023;28;88098;-86
2022/06/09 03:58:16;;;;;;;2.30;1.23;;;21.10;68.30;;;;;;4953986;28;90010;-86
2022/06/09 04:00:44;;;;;;;2.40;1.50;;;21.10;68.30;;;;;;4955905;28;91146;-86
2022/06/09 04:03:09;;;;;;;3.05;1.52;;;21.10;68.20;;;;;;4955468;28;87845;-86
2022/06/09 04:05:36;;;;;;;3.28;1.33;;;21.10;68.30;;;;;;4957928;28;87787;-86
2022/06/09 04:08:03;;;;;;;2.13;1.45;;;21.10;68.20;;;;;;4956280;28;87959;-87
2022/06/09 04:10:32;;;;;;;1.80;1.20;;;21.10;68.60;;;;;;4955440;28;87815;-87
2022/06/09 04:12:57;;;;;;;2.95;1.45;;;21.10;68.60;;;;;;4956414;28;87868;-86
2022/06/09 04:15:23;;;;;;;2.55;1.80;;;21.10;68.50;;;;;;4955353;28;89241;-83
2022/06/09 04:17:52;;;;;;;2.30;1.55;;;21.10;68.60;;;;;;4957632;28;87866;-88
2022/06/09 04:20:21;;;;;;;2.47;1.33;;;21.10;68.40;;;;;;4955862;28;89109;-88
2022/06/09 04:22:47;;;;;;;3.13;1.67;;;21.10;68.50;;;;;;4954334;28;87448;-86
2022/06/09 04:25:12;;;;;;;2.47;1.63;;;21.10;68.30;;;;;;4956516;28;87656;-85
2022/06/09 04:27:39;;;;;;;1.33;1.10;;;21.10;68.60;;;;;;4955279;28;91649;-85
2022/06/09 04:30:06;;;;;;;4.10;1.20;;;21.10;68.40;;;;;;4954374;28;90492;-85
2022/06/09 04:32:31;;;;;;;1.85;1.40;;;21.10;68.40;;;;;;4954798;28;87273;-86
2022/06/09 04:35:05;;;;;;;2.47;1.45;;;21.10;68.40;;;;;;4955117;28;87437;-86
2022/06/09 04:40:15;;;;;;;1.75;1.45;;;21.10;68.30;;;;;;4957089;28;86993;-86
2022/06/09 04:42:50;;;;;;;1.88;1.35;;;21.10;68.20;;;;;;4958596;28;87665;-86
2022/06/09 04:45:16;;;;;;;3.17;1.42;;;21.10;68.10;;;;;;4954613;28;88275;-85
2022/06/09 04:47:42;;;;;;;3.08;1.50;;;21.10;68.00;;;;;;4955649;28;89312;-87
2022/06/09 04:50:09;;;;;;;2.33;1.40;;;21.10;68.00;;;;;;4955164;28;88929;-87
2022/06/09 04:52:35;;;;;;;1.80;1.10;;;21.10;67.90;;;;;;4955551;28;87899;-86
2022/06/09 04:55:01;;;;;;;2.50;1.60;;;21.10;68.00;;;;;;4956814;28;87447;-85
2022/06/09 04:57:46;;;;;;;2.00;1.30;;;21.10;68.00;;;;;;4956734;28;87835;-86
2022/06/09 05:00:14;;;;;;;2.45;1.63;;;21.20;68.10;;;;;;4954826;28;87035;-87
2022/06/09 05:02:40;;;;;;;1.77;1.52;;;21.20;68.00;;;;;;4954815;28;87193;-87
2022/06/09 05:05:09;;;;;;;3.38;1.98;;;21.20;68.20;;;;;;4955233;28;88447;-85
2022/06/09 05:07:34;;;;;;;1.57;1.40;;;21.20;68.90;;;;;;4954210;28;89345;-86
2022/06/09 05:10:00;;;;;;;2.85;1.83;;;21.20;68.30;;;;;;4956826;28;87721;-87
2022/06/09 05:12:25;;;;;;;3.35;1.40;;;21.20;68.30;;;;;;4954164;28;87545;-86
2022/06/09 05:14:54;;;;;;;2.25;1.50;;;21.20;68.10;;;;;;4953652;28;88770;-86
2022/06/09 05:17:19;;;;;;;2.13;1.50;;;21.20;68.20;;;;;;4953259;28;91775;-85
2022/06/09 05:19:45;;;;;;;2.40;1.40;;;21.20;68.10;;;;;;4954326;28;91159;-87
2022/06/09 05:22:12;;;;;;;2.50;1.23;;;21.20;68.10;;;;;;4956609;28;87632;-88
2022/06/09 05:24:37;;;;;;;2.67;1.38;;;21.20;68.10;;;;;;4957478;28;87100;-86
2022/06/09 05:27:03;;;;;;;2.08;1.50;;;21.30;68.20;;;;;;4954570;28;88701;-87
2022/06/09 05:29:29;;;;;;;2.58;1.48;;;21.20;68.10;;;;;;4957623;28;87769;-85
2022/06/09 05:31:55;;;;;;;2.22;1.30;;;21.30;68.30;;;;;;4957505;28;86976;-87
2022/06/09 05:34:20;;;;;;;2.33;1.30;;;21.30;68.20;;;;;;4957600;28;86190;-85
2022/06/09 05:36:57;;;;;;;3.58;1.38;;;21.30;68.30;;;;;;4956574;28;87784;-86
2022/06/09 05:44:55;;;;;;;2.95;1.60;;;21.30;68.40;;;;;;4956949;28;86991;-87
2022/06/09 05:47:23;;;;;;;2.63;1.73;;;21.30;68.30;;;;;;4956106;28;90548;-88
2022/06/09 05:49:53;;;;;;;1.58;1.40;;;21.30;68.40;;;;;;4956456;28;87846;-87
2022/06/09 05:52:23;;;;;;;1.92;1.15;;;21.30;68.50;;;;;;4953714;28;87429;-86
2022/06/09 05:54:49;;;;;;;3.88;1.52;;;21.30;68.50;;;;;;4957419;28;87747;-87
2022/06/09 05:57:15;;;;;;;3.17;1.70;;;21.30;68.70;;;;;;4955657;28;88132;-86
2022/06/09 05:59:41;;;;;;;2.08;1.42;;;21.40;68.60;;;;;;4955721;28;87735;-86
2022/06/09 06:02:08;;;;;;;1.67;1.20;;;21.40;68.70;;;;;;4957209;28;87783;-87
2022/06/09 06:04:35;;;;;;;2.60;1.50;;;21.40;68.60;;;;;;4954719;28;89505;-86
2022/06/09 06:07:00;;;;;;;3.03;1.42;;;21.40;68.70;;;;;;4954601;28;89156;-85
2022/06/09 06:09:29;;;;;;;2.50;1.40;;;21.40;68.60;;;;;;4958706;28;88283;-85
2022/06/09 06:11:55;;;;;;;9.77;1.73;;;21.40;68.80;;;;;;4958217;28;87361;-85
2022/06/09 06:14:23;;;;;;;3.75;1.70;;;21.40;68.50;;;;;;4958891;28;87206;-85
2022/06/09 06:16:52;;;;;;;9.82;2.00;;;21.40;68.30;;;;;;4956131;28;90715;-85
2022/06/09 06:19:19;;;;;;;10.82;2.03;;;21.40;67.60;;;;;;4958790;28;89106;-87
2022/06/09 06:21:46;;;;;;;5.78;2.40;;;21.40;68.00;;;;;;4959518;28;87349;-87
2022/06/09 06:24:31;;;;;;;11.45;2.95;;;21.40;68.20;;;;;;4962014;28;88398;-85
2022/06/09 06:26:56;;;;;;;6.25;2.47;;;21.40;68.40;;;;;;4957770;28;88150;-85
2022/06/09 06:29:24;;;;;;;9.88;2.33;;;21.40;68.30;;;;;;4958986;28;88028;-86
2022/06/09 06:32:02;;;;;;;9.10;2.88;;;21.40;68.70;;;;;;4955075;28;87974;-85
2022/06/09 06:34:36;;;;;;;8.88;3.25;;;21.40;69.50;;;;;;4956397;28;90499;-84
2022/06/09 06:37:02;;;;;;;8.80;2.50;;;21.40;68.30;;;;;;4958293;28;87746;-85
2022/06/09 06:39:28;;;;;;;9.00;2.90;;;21.50;68.60;;;;;;4958275;28;87984;-86
2022/06/09 06:41:53;;;;;;;9.95;3.30;;;21.50;68.70;;;;;;4954454;28;87477;-84
2022/06/09 06:44:19;;;;;;;9.98;2.70;;;21.40;68.80;;;;;;4957496;28;87584;-85
2022/06/09 06:46:49;;;;;;;9.48;2.50;;;21.40;68.60;;;;;;4958876;28;87860;-85
2022/06/09 06:49:15;;;;;;;15.13;3.15;;;21.40;68.80;;;;;;4958152;28;87470;-84
2022/06/09 06:51:41;;;;;;;7.25;2.47;;;21.40;68.90;;;;;;4955481;28;88173;-86
2022/06/09 06:54:06;;;;;;;9.00;3.00;;;21.40;69.00;;;;;;4938550;28;87832;-85
2022/06/09 06:56:34;;;;;;;7.05;2.53;;;21.40;69.10;;;;;;4958033;28;88513;-85
2022/06/09 06:59:01;;;;;;;12.18;3.13;;;21.40;69.20;;;;;;4965783;28;90134;-85
2022/06/09 07:01:27;;;;;;;6.97;3.00;;;21.40;69.00;;;;;;4960606;28;87190;-86
2022/06/09 07:03:54;;;;;;;5.80;2.55;;;21.40;69.20;;;;;;4957938;28;89817;-84
2022/06/09 07:06:20;;;;;;;8.57;3.05;;;21.40;69.10;;;;;;4958623;28;87277;-84
2022/06/09 07:08:52;;;;;;;10.52;3.25;;;21.40;69.10;;;;;;4958618;28;87808;-87
2022/06/09 07:11:18;;;;;;;7.85;2.30;;;21.40;70.10;;;;;;4956434;28;87728;-86
2022/06/09 07:13:43;;;;;;;6.32;2.58;;;21.40;69.20;;;;;;4956756;28;88148;-84
2022/06/09 07:16:09;;;;;;;5.43;2.38;;;21.40;69.40;;;;;;4957844;28;87531;-85
2022/06/09 07:18:37;;;;;;;6.28;2.42;;;21.40;69.20;;;;;;4958652;28;87657;-85
2022/06/09 07:21:03;;;;;;;6.15;2.30;;;21.40;69.10;;;;;;4950552;28;88467;-85
2022/06/09 07:23:33;;;;;;;9.10;2.90;;;21.40;68.80;;;;;;4962687;28;88539;-86
2022/06/09 07:26:02;;;;;;;7.40;2.50;;;21.40;68.60;;;;;;4957916;28;89619;-87
2022/06/09 07:28:28;;;;;;;9.40;2.80;;;21.40;68.60;;;;;;4956143;28;90022;-87
2022/06/09 07:30:56;;;;;;;7.25;2.60;;;21.40;68.60;;;;;;4953614;28;87214;-87
2022/06/09 07:33:25;;;;;;;16.58;3.38;;;21.40;68.80;;;;;;4953880;28;89124;-87
2022/06/09 07:35:53;;;;;;;8.30;2.87;;;21.40;68.70;;;;;;4955870;28;90713;-87
2022/06/09 07:38:19;;;;;;;18.08;4.10;;;21.40;68.80;;;;;;4956078;28;90632;-88
2022/06/09 07:40:47;;;;;;;26.92;5.85;;;21.40;68.80;;;;;;4951391;28;88148;-86
2022/06/09 07:43:13;;;;;;;31.95;6.85;;;21.40;66.60;;;;;;4956798;28;87166;-85
2022/06/09 07:45:40;;;;;;;41.95;7.15;;;21.40;66.50;;;;;;4953305;28;88739;-86
2022/06/09 07:48:06;;;;;;;32.60;6.65;;;21.40;66.50;;;;;;4952534;28;87175;-86
2022/06/09 07:50:33;;;;;;;24.58;5.80;;;21.40;66.70;;;;;;4952029;28;88262;-86
2022/06/09 07:53:00;;;;;;;25.00;5.07;;;21.40;66.90;;;;;;4957028;28;88309;-87
2022/06/09 07:55:29;;;;;;;29.75;4.70;;;21.30;67.60;;;;;;4952490;28;90124;-87
2022/06/09 07:57:55;;;;;;;19.05;4.53;;;21.40;68.70;;;;;;4954868;28;90593;-87
2022/06/09 08:00:26;;;;;;;19.67;5.28;;;21.40;68.80;;;;;;4951173;28;87951;-86
2022/06/09 08:02:53;;;;;;;22.92;5.45;;;21.40;68.80;;;;;;4953347;28;88054;-87
2022/06/09 08:05:21;;;;;;;22.33;5.45;;;21.40;68.50;;;;;;4954850;28;90771;-87
2022/06/09 08:07:47;;;;;;;23.33;5.93;;;21.40;68.60;;;;;;4956647;28;87965;-86
2022/06/09 08:10:21;;;;;;;30.58;6.13;;;21.40;68.60;;;;;;4955051;28;87969;-88
2022/06/09 08:12:49;;;;;;;24.50;5.97;;;21.40;68.20;;;;;;4957873;28;89600;-89
2022/06/09 08:15:15;;;;;;;26.67;5.55;;;21.40;69.30;;;;;;4966265;28;90910;-91
2022/06/09 08:17:41;;;;;;;19.67;5.43;;;21.40;68.10;;;;;;4961328;28;87721;-89
2022/06/09 08:20:08;;;;;;;23.88;5.53;;;21.40;68.30;;;;;;4962236;28;87532;-94
2022/06/09 08:22:34;;;;;;;31.25;6.20;;;21.40;68.70;;;;;;4961177;28;87313;-92
2022/06/09 08:25:00;;;;;;;19.15;5.13;;;21.40;68.70;;;;;;4961100;28;87860;-94
2022/06/09 08:27:26;;;;;;;22.55;6.07;;;21.40;68.70;;;;;;4958819;28;87416;-88
2022/06/09 08:29:52;;;;;;;22.63;5.53;;;21.40;69.10;;;;;;4957210;28;87143;-87
2022/06/09 08:32:20;;;;;;;22.70;5.45;;;21.40;68.70;;;;;;4959132;28;86993;-88
2022/06/09 08:34:48;;;;;;;20.08;5.03;;;21.40;68.90;;;;;;4957277;28;89428;-85
2022/06/09 08:37:14;;;;;;;23.70;5.35;;;21.40;68.90;;;;;;4957495;28;89098;-84
2022/06/09 08:39:39;;;;;;;28.65;6.05;;;21.40;68.80;;;;;;4958101;28;86952;-86
2022/06/09 08:42:13;;;;;;;27.13;5.75;;;21.40;68.80;;;;;;4957647;28;88458;-86
2022/06/09 08:44:56;;;;;;;17.15;4.60;;;21.40;68.70;;;;;;4956834;28;87298;-86
2022/06/09 08:47:34;;;;;;;18.88;5.00;;;21.40;68.60;;;;;;4956584;28;89358;-85
2022/06/09 08:50:35;;;;;;;24.35;6.45;;;21.40;68.90;;;;;;4955427;28;87579;-85
2022/06/09 08:53:11;;;;;;;23.38;5.50;;;21.40;69.10;;;;;;4947199;28;91028;-86
2022/06/09 08:55:47;;;;;;;22.85;5.90;;;21.40;69.90;;;;;;4963752;28;90504;-84
2022/06/09 08:58:16;;;;;;;20.55;5.72;;;21.40;69.80;;;;;;4955461;28;91240;-85
2022/06/09 09:00:46;;;;;;;18.77;5.20;;;21.30;70.00;;;;;;4953017;28;87940;-86
2022/06/09 09:03:27;;;;;;;20.48;4.80;;;21.40;70.70;;;;;;4955484;28;88263;-89
2022/06/09 09:06:07;;;;;;;22.05;4.43;;;21.30;69.80;;;;;;4947036;28;87707;-86
2022/06/09 09:08:35;;;;;;;21.02;4.07;;;21.30;68.90;;;;;;4956928;28;87358;-85
2022/06/09 09:11:10;;;;;;;19.60;4.57;;;21.30;68.00;;;;;;4955750;28;87265;-85
2022/06/09 09:14:00;;;;;;;27.40;6.20;;;21.30;67.10;;;;;;4954422;28;89438;-85
2022/06/09 09:16:43;;;;;;;44.25;7.35;;;21.30;67.20;;;;;;4956059;28;88281;-85
2022/06/09 09:19:20;;;;;;;56.13;7.93;;;21.30;67.40;;;;;;4954994;28;90628;-87
2022/06/09 09:22:04;;;;;;;38.08;6.50;;;21.30;67.30;;;;;;4955956;28;87125;-85
2022/06/09 09:25:09;;;;;;;32.92;5.88;;;21.30;67.50;;;;;;4956215;28;87612;-85
2022/06/09 09:30:18;;;;;;;31.90;5.03;;;21.40;68.90;;;;;;4956987;22;87941;-69
2022/06/09 09:32:50;;;;;;;35.40;6.38;;;21.40;69.50;;;;;;4947362;28;88167;-70
2022/06/09 09:35:22;;;;;;;32.53;5.85;;;21.40;69.40;;;;;;4948827;28;89880;-68
2022/06/09 09:37:52;;;;;;;29.13;6.95;;;21.40;69.90;;;;;;4956065;28;88465;-71
2022/06/09 09:40:23;;;;;;;32.28;6.15;;;21.50;67.10;;;;;;4949570;28;89897;-70
2022/06/09 09:42:51;;;;;;;29.92;6.03;;;21.50;68.20;;;;;;4951125;28;87909;-69
2022/06/09 09:45:39;;;;;;;29.85;5.35;;;21.50;68.00;;;;;;4954857;28;87082;-71
2022/06/09 09:48:30;;;;;;;21.88;5.80;;;21.50;67.30;;;;;;4958063;28;89243;-74
2022/06/09 09:51:01;;;;;;;28.25;6.88;;;21.50;68.80;;;;;;4953359;28;87836;-74
2022/06/09 09:53:40;;;;;;;29.38;6.13;;;21.50;69.40;;;;;;4953641;28;88295;-71
2022/06/09 09:56:17;;;;;;;22.90;5.60;;;21.40;69.00;;;;;;4952774;28;87358;-73
2022/06/09 09:58:49;;;;;;;18.85;5.22;;;21.40;68.60;;;;;;4952837;28;89105;-70
2022/06/09 10:01:14;;;;;;;27.95;5.72;;;21.40;68.50;;;;;;4958969;28;87478;-74
2022/06/09 10:09:59;;;;;;;18.13;4.88;;;21.40;68.00;;;;;;4953108;28;88057;-70
2022/06/09 10:12:34;;;;;;;18.33;5.32;;;21.40;67.50;;;;;;4953475;28;87169;-70
2022/06/09 10:15:11;;;;;;;21.67;4.68;;;21.40;67.30;;;;;;4953287;28;87888;-75
2022/06/09 10:18:09;;;;;;;16.40;4.13;;;21.40;67.20;;;;;;4952593;28;87135;-69
2022/06/09 10:20:56;;;;;;;30.50;5.40;;;21.40;67.20;;;;;;4950529;28;89821;-70
2022/06/09 10:23:31;;;;;;;16.52;4.03;;;21.50;67.00;;;;;;4953605;28;89008;-70
2022/06/09 10:26:00;;;;;;;15.88;4.05;;;21.50;66.10;;;;;;4953121;28;87427;-71
2022/06/09 10:28:47;;;;;;;18.30;4.00;;;21.50;65.90;;;;;;4952918;28;87989;-72
2022/06/09 10:31:32;;;;;;;11.65;3.83;;;21.50;65.70;;;;;;4952540;28;88033;-70
2022/06/09 10:34:24;;;;;;;15.00;2.80;;;21.60;65.50;;;;;;4957451;28;88289;-70
2022/06/09 10:36:56;;;;;;;13.77;3.15;;;21.60;63.80;;;;;;4950908;28;87952;-71
2022/06/09 10:39:55;;;;;;;20.92;4.18;;;21.60;64.70;;;;;;4952381;28;86767;-70
2022/06/09 10:42:30;;;;;;;15.27;4.35;;;21.60;69.00;;;;;;4952667;28;87660;-73
2022/06/09 10:45:05;;;;;;;18.13;5.05;;;21.60;79.00;;;;;;4952633;28;87937;-74
2022/06/09 10:56:32;;;;;;;16.15;4.43;;;21.50;78.00;;;;;;4951469;28;87959;-74
2022/06/09 10:59:07;;;;;;;15.35;3.60;;;21.50;76.90;;;;;;4952676;28;87957;-70
2022/06/09 11:01:33;;;;;;;14.13;4.03;;;21.50;75.80;;;;;;4952650;28;86915;-69
2022/06/09 11:04:02;;;;;;;14.52;3.10;;;21.50;74.10;;;;;;4949532;28;89451;-70
2022/06/09 11:06:51;;;;;;;13.43;2.88;;;21.50;70.60;;;;;;4952449;28;87957;-70
2022/06/09 11:09:52;;;;;;;14.95;2.83;;;21.40;69.80;;;;;;4954242;28;87927;-70
2022/06/09 11:12:46;;;;;;;6.65;2.30;;;21.40;69.40;;;;;;4909451;28;87769;-70
2022/06/09 11:15:40;;;;;;;22.00;2.80;;;21.40;69.20;;;;;;4951855;28;88974;-70
2022/06/09 11:18:43;;;;;;;7.63;1.90;;;21.30;68.90;;;;;;4953016;28;88580;-72
2022/06/09 11:21:15;;;;;;;12.48;1.92;;;21.30;68.80;;;;;;4950740;28;87626;-72
2022/06/09 11:24:05;;;;;;;10.05;2.45;;;21.20;68.70;;;;;;4950437;28;87356;-74
2022/06/09 11:26:58;;;;;;;6.22;2.30;;;21.20;68.60;;;;;;4951290;28;88180;-69
2022/06/09 11:29:54;;;;;;;8.18;2.50;;;21.30;68.80;;;;;;4951043;28;87729;-71
2022/06/09 11:32:27;;;;;;;10.32;2.50;;;21.30;68.90;;;;;;4959496;28;87840;-71
2022/06/09 11:35:11;;;;;;;4.80;2.03;;;21.20;68.60;;;;;;4963885;28;88331;-73
2022/06/09 11:38:04;;;;;;;7.65;2.10;;;21.20;68.40;;;;;;4950586;28;89173;-75
2022/06/09 11:40:41;;;;;;;11.20;2.55;;;21.20;68.80;;;;;;4953595;28;87753;-70
2022/06/09 11:43:42;;;;;;;5.43;1.90;;;21.20;68.80;;;;;;4956404;28;88112;-71
2022/06/09 11:46:24;;;;;;;4.75;1.60;;;21.20;68.80;;;;;;4950117;28;87291;-75
2022/06/09 11:48:55;;;;;;;7.93;2.10;;;21.30;68.80;;;;;;4950675;28;87581;-71
2022/06/09 11:51:24;;;;;;;8.30;2.13;;;21.30;69.10;;;;;;4950966;28;87557;-72
2022/06/09 11:53:55;;;;;;;3.30;1.50;;;21.20;68.80;;;;;;4951087;28;87934;-70
2022/06/09 11:56:40;;;;;;;5.45;1.55;;;21.20;69.00;;;;;;4961001;28;87042;-74
2022/06/09 11:59:11;;;;;;;4.50;1.45;;;21.20;68.80;;;;;;4953675;28;90122;-75
2022/06/09 12:01:40;;;;;;;4.13;1.70;;;21.20;68.60;;;;;;4951689;28;88437;-71
2022/06/09 12:04:08;;;;;;;4.60;1.70;;;21.20;68.30;;;;;;4948572;28;87549;-70
2022/06/09 12:06:53;;;;;;;9.10;1.90;;;21.20;68.00;;;;;;4950026;28;87356;-75
2022/06/09 12:09:46;;;;;;;5.30;2.03;;;21.20;67.80;;;;;;4955056;28;89213;-70
2022/06/09 12:12:29;;;;;;;3.92;1.65;;;21.10;67.90;;;;;;4923917;28;88805;-73
2022/06/09 12:15:14;;;;;;;4.38;2.03;;;21.20;68.30;;;;;;4956085;28;87876;-72
2022/06/09 12:17:57;;;;;;;6.60;2.15;;;21.20;68.70;;;;;;4957274;28;87676;-71
2022/06/09 12:20:48;;;;;;;6.63;2.10;;;21.20;68.80;;;;;;4956348;28;89288;-73
2022/06/09 12:23:22;;;;;;;7.28;2.40;;;21.20;68.90;;;;;;4949147;28;90286;-71
2022/06/09 12:26:09;;;;;;;4.55;2.00;;;21.20;69.10;;;;;;4946394;28;87624;-76
2022/06/09 12:28:50;;;;;;;8.07;2.50;;;21.20;69.20;;;;;;4950139;28;87386;-76
2022/06/09 12:31:26;;;;;;;8.98;2.88;;;21.20;69.20;;;;;;4949830;28;88006;-72
2022/06/09 12:34:02;;;;;;;16.48;3.40;;;21.20;69.10;;;;;;4950016;28;87691;-72
2022/06/09 12:36:43;;;;;;;15.35;3.53;;;21.20;69.00;;;;;;4950052;28;88046;-72
2022/06/09 12:39:23;;;;;;;17.70;3.03;;;21.20;68.90;;;;;;4950462;28;88354;-71
2022/06/09 12:41:53;;;;;;;11.10;2.75;;;21.20;68.80;;;;;;4954749;28;90577;-73
2022/06/09 12:44:24;;;;;;;7.55;2.28;;;21.30;68.70;;;;;;4958597;28;87747;-71
2022/06/09 12:46:54;;;;;;;10.10;3.10;;;21.20;68.00;;;;;;4951171;28;87808;-76
2022/06/09 12:49:28;;;;;;;16.00;2.97;;;21.30;68.20;;;;;;4954266;28;89853;-75
2022/06/09 12:51:54;;;;;;;9.40;2.88;;;21.30;68.40;;;;;;4949298;28;88394;-75
2022/06/09 12:54:41;;;;;;;10.75;2.72;;;21.30;68.30;;;;;;4951045;28;87189;-74
2022/06/09 12:57:17;;;;;;;11.38;2.90;;;21.30;68.40;;;;;;4949527;28;87321;-74
2022/06/09 12:59:44;;;;;;;13.57;2.65;;;21.30;68.60;;;;;;4949925;28;87595;-72
2022/06/09 13:02:29;;;;;;;9.10;2.10;;;21.30;68.70;;;;;;4954663;28;89002;-72
2022/06/09 13:04:59;;;;;;;6.05;2.17;;;21.30;68.80;;;;;;4948301;28;90330;-72
2022/06/09 13:07:33;;;;;;;6.90;1.85;;;21.30;68.70;;;;;;4950741;28;88005;-73
2022/06/09 13:10:05;;;;;;;10.18;2.47;;;21.30;68.60;;;;;;4950222;28;91048;-75
2022/06/09 13:15:40;;;;;;;6.72;2.22;;;21.30;68.80;;;;;;4950253;28;88387;-73
2022/06/09 13:18:15;;;;;;;10.10;2.80;;;21.30;68.90;;;;;;4948301;28;87640;-75
2022/06/09 13:20:48;;;;;;;8.70;2.80;;;21.30;68.90;;;;;;4950657;28;86886;-71
2022/06/09 13:23:14;;;;;;;10.93;2.30;;;21.30;68.70;;;;;;4954136;28;89525;-71
2022/06/09 13:25:42;;;;;;;8.02;2.42;;;21.30;68.50;;;;;;4950384;28;87669;-72
2022/06/09 13:28:20;;;;;;;6.57;2.13;;;21.30;67.80;;;;;;4949232;28;88517;-71
2022/06/09 13:30:52;;;;;;;6.80;2.00;;;21.30;67.40;;;;;;4951258;28;90739;-71
2022/06/09 13:33:32;;;;;;;10.45;2.60;;;21.30;67.20;;;;;;4949404;28;88144;-74
2022/06/09 13:36:26;;;;;;;;;;;21.30;66.90;;;;;;4954042;28;88056;-73
2022/06/09 13:38:53;;;;;;;7.15;2.05;;;21.30;66.20;;;;;;4937477;28;88367;-74
2022/06/09 13:41:37;;;;;;;8.25;2.15;;;21.20;65.80;;;;;;4953803;28;87877;-76